Time;durP1;ratioP1;P1;durP2;ratioP2;P2;SDS_P1;SDS_P2;PMS_P1;PMS_P2;Temp;Humidity;BMP_temperature;BMP_pressure;BME280_temperature;BME280_humidity;BME280_pressure;Samples;Min_cycle;Max_cycle;Signal;HPM_P1;HPM_P2
2023/10/02 00:00:18;;;;;;;16.67;9.18;;;;;;;17.69;65.20;101493.31;683017;29;1324;-92
2023/10/02 00:01:06;;;;;;;16.60;9.60;;;;;;;17.75;64.92;101506.59;685597;28;1365;-91
2023/10/02 00:01:24;;;;;;;15.25;10.00;;;;;;;17.69;65.21;101490.69;682944;29;1415;-93
2023/10/02 00:01:51;;;;;;;14.10;9.93;;;;;;;17.70;65.11;101492.44;678441;29;1203;-93
2023/10/02 00:02:12;;;;;;;13.45;9.38;;;;;;;17.66;65.27;101490.66;682999;28;1277;-93
2023/10/02 00:02:42;;;;;;;13.00;9.38;;;;;;;17.68;65.33;101496.81;682339;29;1170;-92
2023/10/02 00:03:05;;;;;;;11.40;9.48;;;;;;;17.66;65.44;101495.94;680115;29;1201;-92
2023/10/02 00:03:28;;;;;;;14.35;9.57;;;;;;;17.71;65.26;101496.88;680680;29;1322;-93
2023/10/02 00:04:16;;;;;;;15.98;9.35;;;;;;;17.65;65.19;101486.25;685995;28;1363;-92
2023/10/02 00:04:34;;;;;;;15.38;9.52;;;;;;;17.71;65.19;101494.25;683059;29;1255;-92
2023/10/02 00:04:55;;;;;;;15.30;9.52;;;;;;;17.67;65.21;101495.06;686103;28;1328;-92
2023/10/02 00:05:40;;;;;;;15.90;9.25;;;;;;;17.68;65.42;101499.47;682307;29;1327;-93
2023/10/02 00:05:57;;;;;;;15.18;10.10;;;;;;;17.72;65.57;101505.66;680459;29;1358;-92
2023/10/02 00:06:18;;;;;;;13.98;10.18;;;;;;;17.73;65.43;101510.97;677858;29;1219;-92
2023/10/02 00:06:39;;;;;;;13.77;9.90;;;;;;;17.72;65.32;101511.84;683217;29;1340;-92
2023/10/02 00:07:05;;;;;;;15.23;9.87;;;;;;;17.71;65.48;101501.25;683096;29;1203;-93
2023/10/02 00:07:29;;;;;;;16.90;10.10;;;;;;;17.69;65.40;101501.22;688459;28;1323;-92
2023/10/02 00:07:51;;;;;;;16.23;9.68;;;;;;;17.73;65.35;101507.44;683364;29;1365;-93
2023/10/02 00:08:31;;;;;;;15.27;9.35;;;;;;;17.73;65.34;101504.78;682495;29;1339;-93
2023/10/02 00:08:53;;;;;;;22.88;10.38;;;;;;;17.70;65.61;101503.00;682364;29;1237;-93
2023/10/02 00:09:14;;;;;;;16.73;10.80;;;;;;;17.70;65.60;101496.84;682718;28;1269;-93
2023/10/02 00:09:36;;;;;;;14.10;10.57;;;;;;;17.67;65.39;101497.69;677884;29;1911;-91
2023/10/02 00:09:56;;;;;;;14.90;10.40;;;;;;;17.72;65.57;101501.28;680437;29;1293;-92
2023/10/02 00:10:18;;;;;;;14.23;10.00;;;;;;;17.71;65.28;101498.63;685700;28;1282;-93
2023/10/02 00:10:40;;;;;;;13.25;9.50;;;;;;;17.71;65.43;101493.34;680781;29;1248;-93
2023/10/02 00:11:35;;;;;;;12.45;9.20;;;;;;;17.62;65.43;101480.94;682795;28;1296;-92
2023/10/02 00:11:56;;;;;;;13.82;9.75;;;;;;;17.65;65.43;101494.16;687124;28;1386;-92
2023/10/02 00:12:19;;;;;;;15.03;10.23;;;;;;;17.69;65.38;101501.22;682959;29;1139;-92
2023/10/02 00:12:40;;;;;;;15.43;10.02;;;;;;;17.67;65.45;101500.34;683389;29;1342;-94
2023/10/02 00:13:03;;;;;;;15.13;10.20;;;;;;;17.67;65.62;101500.34;685833;28;1323;-91
2023/10/02 00:13:25;;;;;;;12.63;9.40;;;;;;;17.60;65.59;101491.50;680656;29;1238;-93
2023/10/02 00:13:48;;;;;;;13.35;9.60;;;;;;;17.68;65.45;101505.66;682793;29;1225;-93
2023/10/02 00:14:18;;;;;;;13.38;9.65;;;;;;;17.67;65.56;101505.63;677849;29;1336;-92
2023/10/02 00:14:41;;;;;;;13.80;9.60;;;;;;;17.67;65.50;101505.63;682780;29;1296;-92
2023/10/02 00:15:12;;;;;;;16.33;9.30;;;;;;;17.66;65.50;101502.09;683077;28;1220;-91
2023/10/02 00:16:25;;;;;;;18.27;9.40;;;;;;;17.66;65.45;101501.22;685745;28;1380;-92
2023/10/02 00:17:24;;;;;;;14.13;10.05;;;;;;;17.59;65.70;101494.09;689821;28;1125;-92
2023/10/02 00:18:04;;;;;;;16.80;10.13;;;;;;;17.60;65.82;101495.88;688514;28;938;-92
2023/10/02 00:18:44;;;;;;;15.85;9.95;;;;;;;17.56;65.49;101494.09;685906;28;932;-93
2023/10/02 00:19:18;;;;;;;15.37;10.37;;;;;;;17.63;65.77;101501.16;685692;28;1376;-92
2023/10/02 00:19:40;;;;;;;16.20;10.07;;;;;;;17.54;65.74;101481.72;685917;28;1277;-93
2023/10/02 00:20:20;;;;;;;16.10;10.40;;;;;;;17.61;65.89;101493.25;677752;29;1268;-92
2023/10/02 00:20:41;;;;;;;15.23;10.27;;;;;;;17.59;65.85;101488.81;683152;28;1331;-92
2023/10/02 00:21:17;;;;;;;14.70;9.77;;;;;;;17.59;65.91;101489.72;685285;28;1340;-92
2023/10/02 00:21:38;;;;;;;16.30;9.88;;;;;;;17.58;65.81;101494.97;683214;28;1527;-91
2023/10/02 00:22:08;;;;;;;14.63;9.98;;;;;;;17.53;65.86;101485.25;688109;28;1264;-93
2023/10/02 00:22:43;;;;;;;16.58;10.50;;;;;;;17.64;65.92;101500.31;681086;29;1575;-93
2023/10/02 00:23:04;;;;;;;17.58;10.38;;;;;;;17.59;65.73;101494.09;683084;29;1266;-92
2023/10/02 00:23:25;;;;;;;16.38;10.27;;;;;;;17.57;65.88;101486.16;685654;28;1404;-93
2023/10/02 00:24:02;;;;;;;16.43;10.20;;;;;;;17.59;65.94;101495.00;683278;29;1270;-92
2023/10/02 00:24:25;;;;;;;14.15;9.50;;;;;;;17.60;65.79;101493.22;685868;28;1377;-93
2023/10/02 00:24:47;;;;;;;18.98;9.88;;;;;;;17.62;65.91;101495.03;682996;29;1290;-92
2023/10/02 00:25:19;;;;;;;21.77;10.30;;;;;;;17.56;66.01;101494.09;683136;29;1205;-91
2023/10/02 00:25:51;;;;;;;17.63;10.02;;;;;;;17.60;65.95;101496.78;683219;28;1242;-93
2023/10/02 00:26:12;;;;;;;14.57;9.32;;;;;;;17.58;65.78;101497.63;680399;29;1314;-92
2023/10/02 00:26:35;;;;;;;14.32;9.55;;;;;;;17.53;65.86;101493.16;683230;28;1369;-92
2023/10/02 00:26:57;;;;;;;12.82;9.77;;;;;;;17.61;65.90;101502.91;679986;29;1255;-92
2023/10/02 00:27:21;;;;;;;15.45;10.00;;;;;;;17.56;65.84;101502.00;677774;29;1408;-92
2023/10/02 00:27:46;;;;;;;15.95;9.70;;;;;;;17.54;65.83;101496.69;680729;29;1265;-92
2023/10/02 00:28:10;;;;;;;17.52;9.48;;;;;;;17.51;65.88;101497.53;683018;28;1252;-92
2023/10/02 00:28:33;;;;;;;17.65;9.23;;;;;;;17.52;65.99;101495.81;680460;29;1355;-92
2023/10/02 00:28:56;;;;;;;17.85;9.80;;;;;;;17.54;65.94;101500.19;680620;29;1244;-94
2023/10/02 00:29:17;;;;;;;18.02;9.52;;;;;;;17.52;65.82;101496.66;685839;28;1229;-93
2023/10/02 00:29:57;;;;;;;17.08;9.13;;;;;;;17.56;65.84;101509.91;685837;28;1902;-93
2023/10/02 00:30:21;;;;;;;14.30;9.32;;;;;;;17.47;65.79;101487.84;682779;29;1309;-92
2023/10/02 00:30:42;;;;;;;16.20;9.95;;;;;;;17.52;65.85;101494.03;680743;29;1447;-92
2023/10/02 00:31:05;;;;;;;15.98;9.88;;;;;;;17.47;65.86;101495.75;682710;29;1329;-93
2023/10/02 00:31:36;;;;;;;15.60;9.57;;;;;;;17.50;65.79;101501.06;683093;29;1281;-92
2023/10/02 00:31:57;;;;;;;14.35;9.55;;;;;;;17.50;65.68;101505.44;685870;28;1293;-92
2023/10/02 00:32:19;;;;;;;14.02;9.90;;;;;;;17.44;65.59;101498.34;685775;28;1275;-93
2023/10/02 00:32:42;;;;;;;15.70;10.10;;;;;;;17.43;65.78;101498.31;680670;29;1408;-93
2023/10/02 00:33:05;;;;;;;14.95;9.77;;;;;;;17.39;65.77;101493.00;679943;29;1270;-93
2023/10/02 00:33:27;;;;;;;11.35;8.23;;;;;;;17.45;65.70;101502.75;685442;28;1277;-92
2023/10/02 00:33:50;;;;;;;11.82;8.00;;;;;;;17.43;65.70;101496.56;678083;29;1452;-92
2023/10/02 00:34:12;;;;;;;18.85;8.20;;;;;;;17.38;65.74;101495.63;682982;29;1222;-92
2023/10/02 00:34:36;;;;;;;18.80;8.52;;;;;;;17.39;65.78;101498.28;685872;28;1298;-92
2023/10/02 00:35:00;;;;;;;13.60;7.90;;;;;;;17.44;65.81;101508.03;683371;29;1381;-93
2023/10/02 00:35:22;;;;;;;10.05;8.13;;;;;;;17.39;65.73;101505.31;683119;29;1257;-92
2023/10/02 00:35:52;;;;;;;10.93;8.10;;;;;;;17.38;65.77;101501.81;683265;29;1226;-92
2023/10/02 00:36:14;;;;;;;10.65;8.02;;;;;;;17.36;65.82;101498.28;680416;29;1221;-93
2023/10/02 00:36:36;;;;;;;11.88;8.13;;;;;;;17.40;65.84;101512.38;683373;28;1247;-93
2023/10/02 00:37:05;;;;;;;13.60;8.77;;;;;;;17.37;65.69;101509.69;685878;28;1395;-92
2023/10/02 00:37:45;;;;;;;14.82;9.90;;;;;;;17.34;65.73;101499.13;678232;29;1246;-93
2023/10/02 00:38:05;;;;;;;14.85;9.63;;;;;;;17.34;65.90;101499.13;677576;29;1370;-92
2023/10/02 00:38:26;;;;;;;15.27;9.43;;;;;;;17.31;65.99;101491.16;677836;29;1211;-93
2023/10/02 00:38:50;;;;;;;14.00;9.10;;;;;;;17.34;65.70;101501.75;680511;29;1287;-93
2023/10/02 00:39:30;;;;;;;12.57;8.77;;;;;;;17.34;66.04;101501.75;680264;29;1282;-93
2023/10/02 00:39:52;;;;;;;11.25;8.90;;;;;;;17.38;65.89;101512.34;680782;29;1270;-93
2023/10/02 00:40:22;;;;;;;12.40;9.30;;;;;;;17.41;65.90;101508.88;682202;29;1272;-92
2023/10/02 00:40:43;;;;;;;14.23;9.15;;;;;;;17.33;65.88;101497.34;684904;28;1397;-92
2023/10/02 00:41:08;;;;;;;14.60;9.15;;;;;;;17.35;65.65;101504.41;684981;28;1272;-91
2023/10/02 00:41:32;;;;;;;14.68;9.25;;;;;;;17.35;65.83;101495.59;680599;29;1451;-91
2023/10/02 00:42:32;;;;;;;12.38;9.25;;;;;;;17.37;65.85;101504.41;688323;28;1266;-92
2023/10/02 00:42:58;;;;;;;14.65;8.50;;;;;;;17.41;65.91;101506.22;685902;28;1232;-92
2023/10/02 00:43:35;;;;;;;15.95;8.63;;;;;;;17.37;65.76;101505.31;677746;29;1340;-91
2023/10/02 00:43:56;;;;;;;13.05;8.95;;;;;;;17.37;65.84;101507.06;685689;28;1439;-92
2023/10/02 00:44:17;;;;;;;12.10;9.07;;;;;;;17.36;65.72;101502.66;688428;28;1281;-92
2023/10/02 00:44:54;;;;;;;15.43;8.90;;;;;;;17.34;65.83;101501.75;683028;29;1256;-92
2023/10/02 00:45:18;;;;;;;14.88;9.32;;;;;;;17.28;65.79;101491.13;682915;29;1135;-91
2023/10/02 00:45:39;;;;;;;15.27;10.00;;;;;;;17.36;65.82;101507.91;682410;29;1328;-92
2023/10/02 00:46:00;;;;;;;16.00;9.68;;;;;;;17.33;65.95;101502.63;682651;29;1350;-92
2023/10/02 00:46:23;;;;;;;15.95;9.65;;;;;;;17.33;65.80;101500.84;682220;29;1356;-91
2023/10/02 00:46:44;;;;;;;13.07;8.95;;;;;;;17.30;66.12;101492.91;684574;28;1388;-93
2023/10/02 00:47:05;;;;;;;13.10;9.30;;;;;;;17.29;65.91;101491.16;685206;28;1360;-92
2023/10/02 00:47:43;;;;;;;12.40;9.00;;;;;;;17.38;66.04;101508.81;679693;29;1231;-92
2023/10/02 00:48:44;;;;;;;17.95;10.27;;;;;;;17.30;65.96;101494.66;679957;29;1341;-92
2023/10/02 00:49:25;;;;;;;17.55;10.73;;;;;;;17.35;65.93;101501.78;682968;29;1215;-91
2023/10/02 00:50:06;;;;;;;15.27;10.40;;;;;;;17.36;66.01;101500.00;682226;28;1317;-94
2023/10/02 00:50:26;;;;;;;16.05;9.82;;;;;;;17.31;66.15;101497.31;682786;28;1272;-92
2023/10/02 00:50:54;;;;;;;15.65;9.55;;;;;;;17.33;66.02;101494.72;680606;29;1296;-92
2023/10/02 00:51:15;;;;;;;12.85;9.20;;;;;;;17.28;66.21;101483.22;679897;29;1288;-92
2023/10/02 00:51:36;;;;;;;14.32;9.50;;;;;;;17.36;66.30;101502.66;683062;28;1330;-94
2023/10/02 00:52:00;;;;;;;15.68;9.90;;;;;;;17.33;65.96;101492.06;685787;28;1146;-95
2023/10/02 00:52:21;;;;;;;16.92;10.43;;;;;;;17.30;66.13;101492.03;680130;29;1382;-91
2023/10/02 00:52:54;;;;;;;14.70;10.35;;;;;;;17.38;66.21;101496.53;680467;29;1258;-92
2023/10/02 00:53:24;;;;;;;14.00;10.02;;;;;;;17.32;66.31;101482.41;682356;29;1345;-93
2023/10/02 00:53:48;;;;;;;17.35;10.35;;;;;;;17.34;66.22;101493.84;683375;29;1395;-92
2023/10/02 00:54:23;;;;;;;17.25;10.43;;;;;;;17.30;66.32;101485.00;682942;29;1479;-93
2023/10/02 00:54:44;;;;;;;14.68;10.10;;;;;;;17.33;66.38;101486.81;686026;28;1294;-91
2023/10/02 00:55:06;;;;;;;14.23;10.07;;;;;;;17.37;66.21;101494.75;682815;28;1276;-94
2023/10/02 00:55:33;;;;;;;12.57;9.02;;;;;;;17.37;66.42;101493.88;682546;29;1319;-92
2023/10/02 00:55:54;;;;;;;11.10;8.63;;;;;;;17.32;66.23;101485.03;685787;28;1265;-93
2023/10/02 00:56:28;;;;;;;13.23;8.80;;;;;;;17.29;66.64;101484.97;682481;29;1140;-92
2023/10/02 00:56:51;;;;;;;15.18;9.70;;;;;;;17.32;66.23;101485.03;684826;28;1341;-92
2023/10/02 00:57:16;;;;;;;16.60;10.32;;;;;;;17.34;66.38;101488.56;680275;29;1211;-92
2023/10/02 00:57:39;;;;;;;17.42;10.30;;;;;;;17.35;66.43;101495.59;680535;29;1295;-90
2023/10/02 00:58:08;;;;;;;15.80;9.73;;;;;;;17.33;66.34;101492.06;688517;28;1308;-91
2023/10/02 01:00:17;;;;;;;15.20;10.27;;;;;;;17.36;66.35;101505.28;680422;29;1083;-92
2023/10/02 01:00:56;;;;;;;14.75;9.93;;;;;;;17.29;66.31;101485.88;683242;29;1183;-93
2023/10/02 01:01:36;;;;;;;15.82;10.30;;;;;;;17.30;66.39;101487.63;681089;29;696;-95
2023/10/02 01:02:17;;;;;;;19.48;10.70;;;;;;;17.28;66.12;101493.75;682829;28;1058;-93
2023/10/02 01:02:39;;;;;;;15.15;10.15;;;;;;;17.28;66.39;101491.13;680525;29;1338;-92
2023/10/02 01:03:01;;;;;;;12.15;9.93;;;;;;;17.28;66.31;101488.50;677839;29;1257;-94
2023/10/02 01:03:23;;;;;;;13.00;9.80;;;;;;;17.26;66.42;101481.44;681316;29;1261;-94
2023/10/02 01:04:28;;;;;;;12.90;9.68;;;;;;;17.22;66.42;101474.34;677736;29;1342;-93
2023/10/02 01:04:49;;;;;;;13.00;9.30;;;;;;;17.28;66.52;101489.38;680628;29;1198;-92
2023/10/02 01:05:14;;;;;;;13.55;9.30;;;;;;;17.31;66.54;101491.16;682791;29;1355;-93
2023/10/02 01:06:11;;;;;;;15.65;10.60;;;;;;;17.23;66.43;101481.38;682880;29;1473;-93
2023/10/02 01:06:54;;;;;;;14.85;9.93;;;;;;;17.29;66.43;101490.25;683004;29;1301;-91
2023/10/02 01:07:15;;;;;;;16.10;10.30;;;;;;;17.23;66.33;101485.81;680209;29;1341;-91
2023/10/02 01:07:37;;;;;;;18.20;10.48;;;;;;;17.24;66.36;101488.47;675212;29;1427;-95
2023/10/02 01:07:58;;;;;;;19.88;10.07;;;;;;;17.21;66.51;101483.13;682908;29;1291;-93
2023/10/02 01:08:24;;;;;;;19.52;9.43;;;;;;;17.30;66.45;101494.66;683014;29;1445;-91
2023/10/02 01:08:45;;;;;;;16.70;9.38;;;;;;;17.23;66.61;101486.66;677823;29;1439;-92
2023/10/02 01:09:07;;;;;;;12.90;9.15;;;;;;;17.26;66.67;101488.47;680316;29;1274;-91
2023/10/02 01:09:30;;;;;;;15.35;9.23;;;;;;;17.26;66.46;101492.00;682777;28;1934;-92
2023/10/02 01:10:11;;;;;;;15.35;9.52;;;;;;;17.26;66.46;101494.63;683090;29;1210;-92
2023/10/02 01:10:40;;;;;;;17.15;10.68;;;;;;;17.23;66.41;101486.66;682504;28;1332;-93
2023/10/02 01:11:03;;;;;;;16.70;10.27;;;;;;;17.25;66.41;101489.34;680264;29;1378;-94
2023/10/02 01:11:24;;;;;;;14.95;10.20;;;;;;;17.23;66.39;101489.31;680308;29;1213;-93
2023/10/02 01:11:45;;;;;;;13.82;10.02;;;;;;;17.25;66.54;101489.34;690745;28;1308;-92
2023/10/02 01:12:10;;;;;;;13.23;9.98;;;;;;;17.24;66.35;101499.00;685478;28;1274;-92
2023/10/02 01:12:43;;;;;;;16.45;9.45;;;;;;;17.26;66.48;101493.72;679981;29;1262;-92
2023/10/02 01:13:05;;;;;;;17.23;9.20;;;;;;;17.24;66.60;101490.19;682932;29;1120;-93
2023/10/02 01:13:27;;;;;;;15.82;9.70;;;;;;;17.24;66.53;101491.09;682563;28;1335;-94
2023/10/02 01:13:48;;;;;;;15.23;10.10;;;;;;;17.23;66.49;101491.06;680417;29;1357;-93
2023/10/02 01:14:09;;;;;;;17.52;9.80;;;;;;;17.25;66.63;101491.97;680157;29;1254;-92
2023/10/02 01:15:13;;;;;;;15.20;9.77;;;;;;;17.22;66.51;101486.66;680243;29;1170;-92
2023/10/02 01:15:34;;;;;;;15.40;9.50;;;;;;;17.25;66.50;101500.78;677573;29;1460;-93
2023/10/02 01:15:59;;;;;;;15.03;9.30;;;;;;;17.18;66.59;101477.81;683009;29;1197;-92
2023/10/02 01:16:20;;;;;;;13.43;9.73;;;;;;;17.19;66.49;101482.19;676795;29;1326;-93
2023/10/02 01:16:50;;;;;;;15.50;9.98;;;;;;;17.21;66.49;101491.03;677659;29;1263;-93
2023/10/02 01:17:14;;;;;;;15.00;9.50;;;;;;;17.21;66.44;101485.78;682809;29;1206;-93
2023/10/02 01:17:35;;;;;;;15.63;9.48;;;;;;;17.19;66.45;101483.94;680246;29;1366;-93
2023/10/02 01:18:21;;;;;;;14.70;9.88;;;;;;;17.23;66.47;101497.22;683130;29;1244;-92
2023/10/02 01:18:40;;;;;;;15.00;9.93;;;;;;;17.18;66.40;101487.44;680379;29;1324;-92
2023/10/02 01:19:06;;;;;;;12.63;9.10;;;;;;;17.20;66.54;101497.16;677410;29;1182;-92
2023/10/02 01:19:52;;;;;;;11.82;8.95;;;;;;;17.20;66.52;101491.00;682907;29;1299;-93
2023/10/02 01:20:20;;;;;;;11.13;8.48;;;;;;;17.20;66.45;101491.88;685322;28;1392;-92
2023/10/02 01:20:48;;;;;;;12.65;9.38;;;;;;;17.18;66.52;101496.25;683190;29;1485;-92
2023/10/02 01:21:11;;;;;;;12.20;9.00;;;;;;;17.16;66.57;101500.66;688080;28;1238;-91
2023/10/02 01:21:33;;;;;;;16.63;10.02;;;;;;;17.14;66.50;101491.81;687458;28;1426;-92
2023/10/02 01:21:56;;;;;;;15.35;9.45;;;;;;;17.11;66.39;101491.78;680244;29;1300;-92
2023/10/02 01:22:26;;;;;;;13.20;9.30;;;;;;;17.12;66.54;101490.91;682244;29;1631;-93
2023/10/02 01:22:52;;;;;;;12.05;9.00;;;;;;;17.11;66.47;101484.72;685799;28;1210;-93
2023/10/02 01:23:17;;;;;;;12.60;8.98;;;;;;;17.09;66.45;101488.25;677565;29;1246;-92
2023/10/02 01:24:10;;;;;;;13.10;8.98;;;;;;;17.16;66.52;101495.38;685671;28;1354;-92
2023/10/02 01:24:31;;;;;;;12.80;8.95;;;;;;;17.10;66.51;101490.88;685663;28;1227;-92
2023/10/02 01:25:13;;;;;;;12.73;9.00;;;;;;;17.08;66.42;101486.47;682997;29;1304;-92
2023/10/02 01:25:36;;;;;;;11.73;8.95;;;;;;;17.11;66.50;101491.78;683012;29;1944;-93
2023/10/02 01:26:00;;;;;;;11.07;8.57;;;;;;;17.09;66.42;101502.28;682903;29;1182;-93
2023/10/02 01:26:20;;;;;;;13.68;8.75;;;;;;;17.05;66.47;101489.97;688238;28;1204;-93
2023/10/02 01:26:43;;;;;;;16.45;9.68;;;;;;;17.04;66.38;101484.66;683189;29;1301;-93
2023/10/02 01:27:04;;;;;;;18.25;10.30;;;;;;;17.02;66.43;101486.41;687941;28;1292;-93
2023/10/02 01:27:40;;;;;;;15.48;9.88;;;;;;;17.03;66.36;101485.53;690635;28;1199;-93
2023/10/02 01:28:01;;;;;;;13.98;9.30;;;;;;;17.04;66.35;101490.81;682815;28;1284;-92
2023/10/02 01:28:25;;;;;;;13.10;9.30;;;;;;;17.06;66.53;101489.09;687639;28;1344;-93
2023/10/02 01:29:29;;;;;;;13.55;9.60;;;;;;;17.10;66.58;101497.91;688454;28;1347;-92
2023/10/02 01:30:14;;;;;;;19.52;9.82;;;;;;;17.04;66.48;101490.81;688474;28;1408;-93
2023/10/02 01:30:31;;;;;;;16.38;10.07;;;;;;;17.04;66.54;101495.19;688127;28;1454;-92
2023/10/02 01:30:55;;;;;;;14.60;10.00;;;;;;;17.05;66.35;101496.97;682974;28;1384;-93
2023/10/02 01:31:35;;;;;;;13.80;9.82;;;;;;;17.02;66.59;101486.41;685414;28;1357;-92
2023/10/02 01:31:58;;;;;;;14.45;9.95;;;;;;;17.03;66.43;101493.44;683046;29;1274;-92
2023/10/02 01:32:19;;;;;;;14.43;9.82;;;;;;;17.04;66.53;101490.81;685274;28;1324;-92
2023/10/02 01:33:06;;;;;;;14.43;9.63;;;;;;;17.04;66.42;101489.94;685740;28;1367;-92
2023/10/02 01:33:32;;;;;;;17.40;9.73;;;;;;;17.04;66.30;101484.66;680324;29;1397;-92
2023/10/02 01:33:54;;;;;;;24.45;10.52;;;;;;;17.01;66.41;101477.59;683129;29;1239;-92
2023/10/02 01:34:54;;;;;;;18.65;10.45;;;;;;;17.03;66.35;101485.53;683002;29;1335;-92
2023/10/02 01:35:18;;;;;;;19.88;10.38;;;;;;;17.05;66.45;101492.59;680179;29;1333;-92
2023/10/02 01:35:48;;;;;;;17.58;10.25;;;;;;;17.08;66.61;101481.19;682955;29;1234;-92
2023/10/02 01:36:09;;;;;;;14.80;10.05;;;;;;;17.04;66.50;101479.38;682813;29;1236;-93
2023/10/02 01:36:32;;;;;;;14.77;9.98;;;;;;;16.99;66.55;101472.28;688062;28;1284;-93
2023/10/02 01:36:53;;;;;;;14.15;9.50;;;;;;;17.01;66.60;101482.00;682857;29;1261;-92
2023/10/02 01:37:55;;;;;;;16.08;10.45;;;;;;;17.03;66.64;101477.63;685614;28;1424;-93
2023/10/02 01:38:24;;;;;;;13.45;9.82;;;;;;;16.95;66.45;101465.22;684706;28;1394;-92
2023/10/02 01:38:46;;;;;;;13.85;9.45;;;;;;;16.97;66.69;101468.75;683032;28;1222;-92
2023/10/02 01:39:14;;;;;;;17.45;10.00;;;;;;;17.02;66.63;101482.00;682788;29;1275;-92
2023/10/02 01:39:35;;;;;;;17.48;10.27;;;;;;;17.02;66.56;101479.34;680194;29;1289;-93
2023/10/02 01:40:28;;;;;;;15.50;10.15;;;;;;;16.99;66.65;101472.28;685552;28;1423;-93
2023/10/02 01:40:37;;;;;;;17.83;10.30;;;;;;;16.97;66.66;101474.03;682221;28;1479;-92
2023/10/02 01:41:10;;;;;;;16.17;10.02;;;;;;;16.99;66.79;101476.69;680317;29;1200;-92
2023/10/02 01:41:32;;;;;;;13.38;10.02;;;;;;;17.01;66.88;101476.72;685619;28;1336;-93
2023/10/02 01:41:52;;;;;;;13.38;10.25;;;;;;;17.04;66.70;101482.03;680291;29;1135;-92
2023/10/02 01:42:15;;;;;;;12.85;9.75;;;;;;;16.96;66.70;101472.25;681574;28;1220;-92
2023/10/02 01:42:38;;;;;;;12.90;9.45;;;;;;;16.94;66.71;101474.00;683017;28;1304;-92
2023/10/02 01:43:22;;;;;;;15.43;9.35;;;;;;;17.02;66.61;101482.00;682733;29;1217;-93
2023/10/02 01:43:49;;;;;;;15.13;9.20;;;;;;;17.02;66.68;101489.03;677368;29;1412;-93
2023/10/02 01:44:10;;;;;;;14.43;9.57;;;;;;;16.98;66.77;101475.78;676935;29;1162;-92
2023/10/02 01:44:31;;;;;;;14.45;9.73;;;;;;;16.98;66.79;101482.84;677529;29;1403;-92
2023/10/02 01:44:55;;;;;;;14.18;9.43;;;;;;;16.98;66.82;101483.69;680636;29;1112;-91
2023/10/02 01:45:16;;;;;;;12.48;9.50;;;;;;;16.96;66.72;101479.31;685082;28;1288;-93
2023/10/02 01:45:42;;;;;;;12.48;9.15;;;;;;;16.95;66.93;101475.75;682458;29;1210;-93
2023/10/02 01:46:06;;;;;;;12.05;9.27;;;;;;;16.95;66.79;101478.41;680287;29;1297;-91
2023/10/02 01:46:28;;;;;;;12.57;9.50;;;;;;;16.96;66.87;101485.44;682679;28;1405;-92
2023/10/02 01:46:50;;;;;;;12.75;9.52;;;;;;;16.89;66.79;101472.19;684967;28;1216;-93
2023/10/02 01:47:11;;;;;;;14.27;9.80;;;;;;;16.97;66.84;101489.84;682739;28;1265;-92
2023/10/02 01:47:41;;;;;;;17.33;10.02;;;;;;;16.93;66.85;101477.50;682742;29;1187;-92
2023/10/02 01:48:02;;;;;;;16.85;10.23;;;;;;;16.90;66.88;101473.94;675013;29;1242;-93
2023/10/02 01:48:36;;;;;;;16.85;10.57;;;;;;;16.91;66.90;101473.06;680163;29;1494;-92
2023/10/02 01:48:57;;;;;;;15.77;10.48;;;;;;;16.93;66.77;101484.50;682765;29;1389;-92
2023/10/02 01:49:25;;;;;;;16.25;9.80;;;;;;;16.97;66.84;101483.69;685257;28;1178;-93
2023/10/02 01:49:47;;;;;;;19.83;9.73;;;;;;;16.95;67.07;101488.03;688291;28;1340;-93
2023/10/02 01:50:09;;;;;;;16.58;9.30;;;;;;;16.93;66.88;101482.78;685334;28;1296;-93
2023/10/02 01:50:30;;;;;;;15.07;9.98;;;;;;;16.90;66.91;101477.44;680336;29;1278;-92
2023/10/02 01:50:51;;;;;;;13.85;9.90;;;;;;;16.93;66.91;101480.13;682058;29;1335;-93
2023/10/02 01:51:21;;;;;;;13.57;10.05;;;;;;;16.89;67.03;101473.03;680060;29;1249;-92
2023/10/02 01:51:42;;;;;;;13.38;9.45;;;;;;;16.87;67.06;101477.41;679912;29;1237;-95
2023/10/02 01:52:02;;;;;;;15.45;9.93;;;;;;;16.90;66.98;101482.72;682651;29;1288;-91
2023/10/02 01:52:25;;;;;;;16.00;10.18;;;;;;;16.89;66.75;101480.94;685191;28;1284;-93
2023/10/02 01:52:46;;;;;;;14.95;10.10;;;;;;;16.93;66.83;101480.13;685513;28;1331;-92
2023/10/02 01:53:07;;;;;;;13.67;9.53;;;;;;;16.90;66.94;101477.44;685453;28;1313;-95
2023/10/02 01:53:30;;;;;;;14.40;9.30;;;;;;;16.88;66.88;101473.91;682703;28;1258;-92
2023/10/02 01:53:57;;;;;;;13.85;9.13;;;;;;;16.94;66.93;101484.53;680450;29;1377;-92
2023/10/02 01:54:19;;;;;;;12.27;9.57;;;;;;;16.91;66.91;101484.47;682704;28;1228;-92
2023/10/02 01:54:40;;;;;;;11.15;8.85;;;;;;;16.91;66.84;101478.34;682918;28;1291;-93
2023/10/02 01:55:02;;;;;;;12.77;8.93;;;;;;;16.88;66.98;101479.19;679591;29;1139;-92
2023/10/02 01:55:29;;;;;;;14.50;9.27;;;;;;;16.88;66.93;101475.66;680141;29;1261;-92
2023/10/02 01:55:49;;;;;;;14.48;9.43;;;;;;;16.89;66.97;101480.09;682968;29;1253;-91
2023/10/02 01:56:11;;;;;;;14.45;9.50;;;;;;;16.86;67.03;101476.53;679718;29;1296;-92
2023/10/02 01:56:36;;;;;;;15.23;9.52;;;;;;;16.86;66.90;101476.53;682430;29;1169;-91
2023/10/02 01:56:59;;;;;;;15.25;9.70;;;;;;;16.86;66.96;101480.94;674953;29;1325;-92
2023/10/02 01:57:24;;;;;;;13.10;8.98;;;;;;;16.79;66.99;101465.88;680066;29;1375;-93
2023/10/02 01:57:45;;;;;;;12.50;8.60;;;;;;;16.80;66.95;101467.66;682644;29;1348;-92
2023/10/02 01:58:18;;;;;;;11.95;8.35;;;;;;;16.77;66.99;101465.00;679959;29;1270;-91
2023/10/02 01:58:40;;;;;;;13.10;9.70;;;;;;;16.80;66.88;101470.28;685234;28;1269;-91
2023/10/02 01:59:10;;;;;;;14.73;10.30;;;;;;;16.81;67.04;101474.69;680135;29;1303;-91
2023/10/02 01:59:32;;;;;;;17.33;9.95;;;;;;;16.85;66.78;101472.13;674837;29;1404;-94
2023/10/02 02:00:13;;;;;;;16.25;9.35;;;;;;;16.81;66.97;101472.06;680240;29;1476;-92
2023/10/02 02:00:34;;;;;;;13.07;9.82;;;;;;;16.76;66.98;101464.09;682787;29;1476;-91
2023/10/02 02:00:57;;;;;;;13.55;9.82;;;;;;;16.83;66.84;101479.13;680254;29;1241;-93
2023/10/02 02:01:22;;;;;;;13.00;9.23;;;;;;;16.77;66.95;101465.00;674908;29;1347;-92
2023/10/02 02:01:46;;;;;;;12.32;8.85;;;;;;;16.81;66.91;101477.31;683011;29;1373;-92
2023/10/02 02:02:12;;;;;;;12.68;8.95;;;;;;;16.80;66.82;101475.56;682537;28;1243;-92
2023/10/02 02:02:34;;;;;;;13.30;9.50;;;;;;;16.84;66.81;101482.66;681705;28;1297;-92
2023/10/02 02:03:14;;;;;;;14.90;9.67;;;;;;;16.76;66.92;101465.81;679945;29;1322;-93
2023/10/02 02:03:39;;;;;;;15.38;9.57;;;;;;;16.79;66.98;101479.06;677545;29;1190;-92
2023/10/02 02:03:59;;;;;;;15.45;9.82;;;;;;;16.78;66.92;101470.25;678855;28;1278;-92
2023/10/02 02:04:28;;;;;;;16.75;10.90;;;;;;;16.84;67.06;101480.03;680010;29;1285;-92
2023/10/02 02:04:49;;;;;;;14.93;10.20;;;;;;;16.78;66.99;101472.03;680406;28;1414;-92
2023/10/02 02:05:14;;;;;;;13.90;9.57;;;;;;;16.74;67.05;101462.28;685230;28;1381;-92
2023/10/02 02:05:35;;;;;;;17.08;10.18;;;;;;;16.74;67.10;101465.84;685495;28;1321;-93
2023/10/02 02:05:57;;;;;;;16.48;10.98;;;;;;;16.74;66.97;101464.94;682852;29;1318;-92
2023/10/02 02:06:25;;;;;;;14.02;10.27;;;;;;;16.78;66.97;101472.03;685254;28;1253;-93
2023/10/02 02:06:54;;;;;;;12.73;9.30;;;;;;;16.72;67.16;101476.34;688498;28;882;-92
2023/10/02 02:07:20;;;;;;;15.73;9.40;;;;;;;16.76;67.08;101476.38;685434;28;1292;-92
2023/10/02 02:07:41;;;;;;;15.80;9.85;;;;;;;16.77;66.97;101465.00;685361;28;1381;-93
2023/10/02 02:08:21;;;;;;;14.45;9.95;;;;;;;16.72;67.01;101459.66;682654;29;1179;-92
2023/10/02 02:08:43;;;;;;;13.77;10.45;;;;;;;16.74;67.19;101468.47;690740;28;1284;-92
2023/10/02 02:09:18;;;;;;;17.10;10.50;;;;;;;16.74;67.14;101471.09;685503;28;1456;-92
2023/10/02 02:09:43;;;;;;;21.30;10.40;;;;;;;16.68;67.17;101466.63;682875;28;1918;-92
2023/10/02 02:10:04;;;;;;;18.38;10.00;;;;;;;16.78;67.11;101482.56;687549;28;1237;-90
2023/10/02 02:10:27;;;;;;;17.15;9.80;;;;;;;16.76;67.21;101473.72;681866;29;1353;-91